sensor_id;sensor_type;location;lat;lon;timestamp;temperature;humidity
12761;DHT22;6444;49.742;6.114;2024-03-25T00:01:31;7.60;99.90
12761;DHT22;6444;49.742;6.114;2024-03-25T00:03:58;7.70;99.90
12761;DHT22;6444;49.742;6.114;2024-03-25T00:06:24;7.70;99.90
12761;DHT22;6444;49.742;6.114;2024-03-25T00:08:51;7.50;99.90
12761;DHT22;6444;49.742;6.114;2024-03-25T00:11:18;7.80;99.90
12761;DHT22;6444;49.742;6.114;2024-03-25T00:13:44;7.70;99.90
12761;DHT22;6444;49.742;6.114;2024-03-25T00:16:11;7.60;99.90
12761;DHT22;6444;49.742;6.114;2024-03-25T00:18:37;7.80;99.90
12761;DHT22;6444;49.742;6.114;2024-03-25T00:21:04;8.00;99.90
12761;DHT22;6444;49.742;6.114;2024-03-25T00:23:31;8.20;99.90
12761;DHT22;6444;49.742;6.114;2024-03-25T00:25:57;8.50;99.90
12761;DHT22;6444;49.742;6.114;2024-03-25T00:28:24;8.50;99.90
12761;DHT22;6444;49.742;6.114;2024-03-25T00:30:51;8.50;99.90
12761;DHT22;6444;49.742;6.114;2024-03-25T00:33:17;8.00;99.90
12761;DHT22;6444;49.742;6.114;2024-03-25T00:35:44;7.80;99.90
12761;DHT22;6444;49.742;6.114;2024-03-25T00:38:11;7.90;99.90
12761;DHT22;6444;49.742;6.114;2024-03-25T00:40:37;8.00;99.90
12761;DHT22;6444;49.742;6.114;2024-03-25T00:43:04;8.00;99.90
12761;DHT22;6444;49.742;6.114;2024-03-25T00:45:30;8.00;99.90
12761;DHT22;6444;49.742;6.114;2024-03-25T00:47:57;8.20;99.90
12761;DHT22;6444;49.742;6.114;2024-03-25T00:50:24;8.10;99.90
12761;DHT22;6444;49.742;6.114;2024-03-25T00:52:50;8.00;99.90
12761;DHT22;6444;49.742;6.114;2024-03-25T00:55:17;8.00;99.90
12761;DHT22;6444;49.742;6.114;2024-03-25T00:57:43;8.10;99.90
12761;DHT22;6444;49.742;6.114;2024-03-25T01:00:10;8.10;99.90
12761;DHT22;6444;49.742;6.114;2024-03-25T01:02:37;8.00;99.90
12761;DHT22;6444;49.742;6.114;2024-03-25T01:05:04;8.00;99.90
12761;DHT22;6444;49.742;6.114;2024-03-25T01:07:31;7.80;99.90
12761;DHT22;6444;49.742;6.114;2024-03-25T01:09:57;7.90;99.90
12761;DHT22;6444;49.742;6.114;2024-03-25T01:12:24;7.70;99.90
12761;DHT22;6444;49.742;6.114;2024-03-25T01:14:50;7.50;99.90
12761;DHT22;6444;49.742;6.114;2024-03-25T01:17:17;7.30;99.90
12761;DHT22;6444;49.742;6.114;2024-03-25T01:19:43;6.50;99.90
12761;DHT22;6444;49.742;6.114;2024-03-25T01:22:10;6.50;99.90
12761;DHT22;6444;49.742;6.114;2024-03-25T01:24:37;6.70;99.90
12761;DHT22;6444;49.742;6.114;2024-03-25T01:27:03;7.10;99.90
12761;DHT22;6444;49.742;6.114;2024-03-25T01:29:30;7.20;99.90
12761;DHT22;6444;49.742;6.114;2024-03-25T01:31:57;7.00;99.90
12761;DHT22;6444;49.742;6.114;2024-03-25T01:34:23;6.60;99.90
12761;DHT22;6444;49.742;6.114;2024-03-25T01:36:50;7.00;99.90
12761;DHT22;6444;49.742;6.114;2024-03-25T01:39:16;7.30;99.90
12761;DHT22;6444;49.742;6.114;2024-03-25T01:41:43;6.90;99.90
12761;DHT22;6444;49.742;6.114;2024-03-25T01:44:10;7.10;99.90
12761;DHT22;6444;49.742;6.114;2024-03-25T01:46:36;6.50;99.90
12761;DHT22;6444;49.742;6.114;2024-03-25T01:49:03;6.70;99.90
12761;DHT22;6444;49.742;6.114;2024-03-25T01:51:30;7.00;99.90
12761;DHT22;6444;49.742;6.114;2024-03-25T01:53:56;7.10;99.90
12761;DHT22;6444;49.742;6.114;2024-03-25T01:56:23;6.90;99.90
12761;DHT22;6444;49.742;6.114;2024-03-25T01:58:49;5.90;99.90
12761;DHT22;6444;49.742;6.114;2024-03-25T02:01:16;6.10;99.90
12761;DHT22;6444;49.742;6.114;2024-03-25T02:03:43;6.10;99.90
12761;DHT22;6444;49.742;6.114;2024-03-25T02:06:13;6.30;99.90
12761;DHT22;6444;49.742;6.114;2024-03-25T02:08:40;6.30;99.90
12761;DHT22;6444;49.742;6.114;2024-03-25T02:11:06;6.30;99.90
12761;DHT22;6444;49.742;6.114;2024-03-25T02:13:32;6.30;99.90
12761;DHT22;6444;49.742;6.114;2024-03-25T02:15:59;6.20;99.90
12761;DHT22;6444;49.742;6.114;2024-03-25T02:18:26;6.00;99.90
12761;DHT22;6444;49.742;6.114;2024-03-25T02:20:53;6.10;99.90
12761;DHT22;6444;49.742;6.114;2024-03-25T02:23:20;6.00;99.90
12761;DHT22;6444;49.742;6.114;2024-03-25T02:25:52;6.20;99.90
12761;DHT22;6444;49.742;6.114;2024-03-25T02:28:19;5.80;99.90
12761;DHT22;6444;49.742;6.114;2024-03-25T02:30:45;5.90;99.90
12761;DHT22;6444;49.742;6.114;2024-03-25T02:33:12;5.50;99.90
12761;DHT22;6444;49.742;6.114;2024-03-25T02:35:39;4.40;99.90
12761;DHT22;6444;49.742;6.114;2024-03-25T02:38:06;3.90;99.90
12761;DHT22;6444;49.742;6.114;2024-03-25T02:40:33;3.80;99.90
12761;DHT22;6444;49.742;6.114;2024-03-25T02:42:59;4.10;99.90
12761;DHT22;6444;49.742;6.114;2024-03-25T02:45:26;4.40;99.90
12761;DHT22;6444;49.742;6.114;2024-03-25T02:47:53;4.50;99.90
12761;DHT22;6444;49.742;6.114;2024-03-25T02:50:20;4.40;99.90
12761;DHT22;6444;49.742;6.114;2024-03-25T02:52:46;4.20;99.90
12761;DHT22;6444;49.742;6.114;2024-03-25T02:55:13;4.30;99.90
12761;DHT22;6444;49.742;6.114;2024-03-25T02:57:40;3.80;99.90
12761;DHT22;6444;49.742;6.114;2024-03-25T03:00:06;3.50;99.90
12761;DHT22;6444;49.742;6.114;2024-03-25T03:02:33;4.00;99.90
12761;DHT22;6444;49.742;6.114;2024-03-25T03:05:00;4.20;99.90
12761;DHT22;6444;49.742;6.114;2024-03-25T03:07:26;3.70;99.90
12761;DHT22;6444;49.742;6.114;2024-03-25T03:09:54;3.70;99.90
12761;DHT22;6444;49.742;6.114;2024-03-25T03:12:20;3.60;99.90
12761;DHT22;6444;49.742;6.114;2024-03-25T03:14:47;3.40;99.90
12761;DHT22;6444;49.742;6.114;2024-03-25T03:17:14;3.70;99.90
12761;DHT22;6444;49.742;6.114;2024-03-25T03:19:40;3.60;99.90
12761;DHT22;6444;49.742;6.114;2024-03-25T03:22:07;4.30;99.90
12761;DHT22;6444;49.742;6.114;2024-03-25T03:24:33;4.90;99.90
12761;DHT22;6444;49.742;6.114;2024-03-25T03:27:00;5.10;99.90
12761;DHT22;6444;49.742;6.114;2024-03-25T03:29:27;5.30;99.90
12761;DHT22;6444;49.742;6.114;2024-03-25T03:31:53;5.70;99.90
12761;DHT22;6444;49.742;6.114;2024-03-25T03:34:20;6.10;99.90
12761;DHT22;6444;49.742;6.114;2024-03-25T03:36:47;6.00;99.90
12761;DHT22;6444;49.742;6.114;2024-03-25T03:39:14;5.60;99.90
12761;DHT22;6444;49.742;6.114;2024-03-25T03:41:40;5.50;99.90
12761;DHT22;6444;49.742;6.114;2024-03-25T03:44:06;5.00;99.90
12761;DHT22;6444;49.742;6.114;2024-03-25T03:46:33;4.30;99.90
12761;DHT22;6444;49.742;6.114;2024-03-25T03:49:00;4.40;99.90
12761;DHT22;6444;49.742;6.114;2024-03-25T03:51:26;4.90;99.90
12761;DHT22;6444;49.742;6.114;2024-03-25T03:53:53;4.80;99.90
12761;DHT22;6444;49.742;6.114;2024-03-25T03:56:20;4.70;99.90
12761;DHT22;6444;49.742;6.114;2024-03-25T03:58:47;4.80;99.90
12761;DHT22;6444;49.742;6.114;2024-03-25T04:01:14;4.70;99.90
12761;DHT22;6444;49.742;6.114;2024-03-25T04:03:40;4.40;99.90
12761;DHT22;6444;49.742;6.114;2024-03-25T04:06:13;4.10;99.90
12761;DHT22;6444;49.742;6.114;2024-03-25T04:08:37;3.80;99.90
12761;DHT22;6444;49.742;6.114;2024-03-25T04:11:03;3.50;99.90
12761;DHT22;6444;49.742;6.114;2024-03-25T04:13:30;3.90;99.90
12761;DHT22;6444;49.742;6.114;2024-03-25T04:15:59;4.10;99.90
12761;DHT22;6444;49.742;6.114;2024-03-25T04:18:23;4.00;99.90
12761;DHT22;6444;49.742;6.114;2024-03-25T04:20:50;3.70;99.90
12761;DHT22;6444;49.742;6.114;2024-03-25T04:23:16;3.60;99.90
12761;DHT22;6444;49.742;6.114;2024-03-25T04:25:43;3.50;99.90
12761;DHT22;6444;49.742;6.114;2024-03-25T04:28:09;3.90;99.90
12761;DHT22;6444;49.742;6.114;2024-03-25T04:30:36;4.20;99.90
12761;DHT22;6444;49.742;6.114;2024-03-25T04:33:04;3.60;99.90
12761;DHT22;6444;49.742;6.114;2024-03-25T04:35:30;3.50;99.90
12761;DHT22;6444;49.742;6.114;2024-03-25T04:37:57;3.10;99.90
12761;DHT22;6444;49.742;6.114;2024-03-25T04:40:23;3.80;99.90
12761;DHT22;6444;49.742;6.114;2024-03-25T04:42:51;4.10;99.90
12761;DHT22;6444;49.742;6.114;2024-03-25T04:45:17;4.30;99.90
12761;DHT22;6444;49.742;6.114;2024-03-25T04:47:44;3.90;99.90
12761;DHT22;6444;49.742;6.114;2024-03-25T04:50:11;3.70;99.90
12761;DHT22;6444;49.742;6.114;2024-03-25T04:52:37;3.90;99.90
12761;DHT22;6444;49.742;6.114;2024-03-25T04:55:04;4.20;99.90
12761;DHT22;6444;49.742;6.114;2024-03-25T04:57:31;4.70;99.90
12761;DHT22;6444;49.742;6.114;2024-03-25T04:59:57;5.10;99.90
12761;DHT22;6444;49.742;6.114;2024-03-25T05:02:24;5.20;99.90
12761;DHT22;6444;49.742;6.114;2024-03-25T05:04:50;4.80;99.90
12761;DHT22;6444;49.742;6.114;2024-03-25T05:07:18;4.90;99.90
12761;DHT22;6444;49.742;6.114;2024-03-25T05:09:45;4.80;99.90
12761;DHT22;6444;49.742;6.114;2024-03-25T05:12:11;5.10;99.90
12761;DHT22;6444;49.742;6.114;2024-03-25T05:14:39;5.40;99.90
12761;DHT22;6444;49.742;6.114;2024-03-25T05:17:06;5.50;99.90
12761;DHT22;6444;49.742;6.114;2024-03-25T05:19:33;5.40;99.90
12761;DHT22;6444;49.742;6.114;2024-03-25T05:21:59;5.30;99.90
12761;DHT22;6444;49.742;6.114;2024-03-25T05:24:26;5.30;99.90
12761;DHT22;6444;49.742;6.114;2024-03-25T05:26:53;4.90;99.90
12761;DHT22;6444;49.742;6.114;2024-03-25T05:29:20;4.90;99.90
12761;DHT22;6444;49.742;6.114;2024-03-25T05:32:02;5.20;99.90
12761;DHT22;6444;49.742;6.114;2024-03-25T05:34:29;5.30;99.90
12761;DHT22;6444;49.742;6.114;2024-03-25T05:36:55;4.80;99.90
12761;DHT22;6444;49.742;6.114;2024-03-25T05:39:23;5.10;99.90
12761;DHT22;6444;49.742;6.114;2024-03-25T05:41:49;5.10;99.90
12761;DHT22;6444;49.742;6.114;2024-03-25T05:44:16;5.40;99.90
12761;DHT22;6444;49.742;6.114;2024-03-25T05:46:42;5.60;99.90
12761;DHT22;6444;49.742;6.114;2024-03-25T05:49:09;5.80;99.90
12761;DHT22;6444;49.742;6.114;2024-03-25T05:51:36;5.70;99.90
12761;DHT22;6444;49.742;6.114;2024-03-25T05:54:02;5.50;99.90
12761;DHT22;6444;49.742;6.114;2024-03-25T05:56:29;5.60;99.90
12761;DHT22;6444;49.742;6.114;2024-03-25T05:58:58;5.90;99.90
12761;DHT22;6444;49.742;6.114;2024-03-25T06:01:25;6.20;99.90
12761;DHT22;6444;49.742;6.114;2024-03-25T06:03:51;6.50;99.90
12761;DHT22;6444;49.742;6.114;2024-03-25T06:06:18;6.60;99.90
12761;DHT22;6444;49.742;6.114;2024-03-25T06:08:45;6.30;99.90
12761;DHT22;6444;49.742;6.114;2024-03-25T06:11:11;4.90;99.90
12761;DHT22;6444;49.742;6.114;2024-03-25T06:13:39;5.30;99.90
12761;DHT22;6444;49.742;6.114;2024-03-25T06:16:05;5.30;99.90
12761;DHT22;6444;49.742;6.114;2024-03-25T06:18:32;5.80;99.90
12761;DHT22;6444;49.742;6.114;2024-03-25T06:20:59;6.20;99.90
12761;DHT22;6444;49.742;6.114;2024-03-25T06:23:26;6.70;99.90
12761;DHT22;6444;49.742;6.114;2024-03-25T06:25:52;6.80;99.90
12761;DHT22;6444;49.742;6.114;2024-03-25T06:28:19;6.50;99.90
12761;DHT22;6444;49.742;6.114;2024-03-25T06:30:45;6.90;99.90
12761;DHT22;6444;49.742;6.114;2024-03-25T06:33:30;7.20;99.90
12761;DHT22;6444;49.742;6.114;2024-03-25T06:36:15;7.40;99.90
12761;DHT22;6444;49.742;6.114;2024-03-25T06:38:42;7.30;99.90
12761;DHT22;6444;49.742;6.114;2024-03-25T06:41:09;7.50;99.90
12761;DHT22;6444;49.742;6.114;2024-03-25T06:43:35;7.30;99.90
12761;DHT22;6444;49.742;6.114;2024-03-25T06:46:02;7.40;99.90
12761;DHT22;6444;49.742;6.114;2024-03-25T06:48:28;7.80;99.90
12761;DHT22;6444;49.742;6.114;2024-03-25T06:50:58;8.00;99.90
12761;DHT22;6444;49.742;6.114;2024-03-25T06:53:25;7.90;99.90
12761;DHT22;6444;49.742;6.114;2024-03-25T06:55:52;8.10;99.90
12761;DHT22;6444;49.742;6.114;2024-03-25T06:58:22;8.40;99.90
12761;DHT22;6444;49.742;6.114;2024-03-25T07:00:49;8.10;99.90
12761;DHT22;6444;49.742;6.114;2024-03-25T07:03:19;8.10;99.90
12761;DHT22;6444;49.742;6.114;2024-03-25T07:05:45;7.50;99.90
12761;DHT22;6444;49.742;6.114;2024-03-25T07:08:12;7.30;99.90
12761;DHT22;6444;49.742;6.114;2024-03-25T07:10:38;7.20;99.90
12761;DHT22;6444;49.742;6.114;2024-03-25T07:13:05;6.90;99.90
12761;DHT22;6444;49.742;6.114;2024-03-25T07:15:32;6.60;99.90
12761;DHT22;6444;49.742;6.114;2024-03-25T07:17:58;6.50;99.90
12761;DHT22;6444;49.742;6.114;2024-03-25T07:20:28;6.60;99.90
12761;DHT22;6444;49.742;6.114;2024-03-25T07:22:54;6.90;99.90
12761;DHT22;6444;49.742;6.114;2024-03-25T07:25:24;7.50;99.90
12761;DHT22;6444;49.742;6.114;2024-03-25T07:27:50;6.90;99.90
12761;DHT22;6444;49.742;6.114;2024-03-25T07:30:18;7.00;99.90
12761;DHT22;6444;49.742;6.114;2024-03-25T07:32:45;7.30;99.90
12761;DHT22;6444;49.742;6.114;2024-03-25T07:35:11;7.10;99.90
12761;DHT22;6444;49.742;6.114;2024-03-25T07:37:38;7.80;99.90
12761;DHT22;6444;49.742;6.114;2024-03-25T07:40:06;7.90;99.90
12761;DHT22;6444;49.742;6.114;2024-03-25T07:42:32;7.90;99.90
12761;DHT22;6444;49.742;6.114;2024-03-25T07:45:00;8.00;99.90
12761;DHT22;6444;49.742;6.114;2024-03-25T07:47:26;8.00;99.90
12761;DHT22;6444;49.742;6.114;2024-03-25T07:49:53;8.70;99.90
12761;DHT22;6444;49.742;6.114;2024-03-25T07:52:20;9.10;99.90
12761;DHT22;6444;49.742;6.114;2024-03-25T07:54:47;8.80;99.90
12761;DHT22;6444;49.742;6.114;2024-03-25T07:57:14;8.80;99.90
12761;DHT22;6444;49.742;6.114;2024-03-25T07:59:40;9.30;99.90
12761;DHT22;6444;49.742;6.114;2024-03-25T08:02:07;9.50;99.90
12761;DHT22;6444;49.742;6.114;2024-03-25T08:04:33;9.80;99.90
12761;DHT22;6444;49.742;6.114;2024-03-25T08:07:00;10.40;99.90
12761;DHT22;6444;49.742;6.114;2024-03-25T08:09:27;9.90;99.90
12761;DHT22;6444;49.742;6.114;2024-03-25T08:11:53;9.80;99.90
12761;DHT22;6444;49.742;6.114;2024-03-25T08:14:20;9.80;99.90
12761;DHT22;6444;49.742;6.114;2024-03-25T08:16:47;10.00;99.90
12761;DHT22;6444;49.742;6.114;2024-03-25T08:19:14;10.50;99.90
12761;DHT22;6444;49.742;6.114;2024-03-25T08:21:41;10.70;99.90
12761;DHT22;6444;49.742;6.114;2024-03-25T08:24:08;10.70;99.90
12761;DHT22;6444;49.742;6.114;2024-03-25T08:26:34;10.90;99.90
12761;DHT22;6444;49.742;6.114;2024-03-25T08:29:02;11.80;99.90
12761;DHT22;6444;49.742;6.114;2024-03-25T08:31:28;11.70;99.90
12761;DHT22;6444;49.742;6.114;2024-03-25T08:33:55;10.90;99.90
12761;DHT22;6444;49.742;6.114;2024-03-25T08:36:22;11.30;99.90
12761;DHT22;6444;49.742;6.114;2024-03-25T08:38:48;11.90;99.90
12761;DHT22;6444;49.742;6.114;2024-03-25T08:41:16;13.80;99.90
12761;DHT22;6444;49.742;6.114;2024-03-25T08:43:42;13.70;99.90
12761;DHT22;6444;49.742;6.114;2024-03-25T08:46:09;13.70;99.90
12761;DHT22;6444;49.742;6.114;2024-03-25T08:48:36;13.80;99.90
12761;DHT22;6444;49.742;6.114;2024-03-25T08:51:02;12.30;99.90
12761;DHT22;6444;49.742;6.114;2024-03-25T08:53:29;13.10;99.90
12761;DHT22;6444;49.742;6.114;2024-03-25T08:55:56;14.40;99.90
12761;DHT22;6444;49.742;6.114;2024-03-25T08:58:22;15.50;99.90
12761;DHT22;6444;49.742;6.114;2024-03-25T09:00:49;17.50;99.90
12761;DHT22;6444;49.742;6.114;2024-03-25T09:03:16;20.70;99.90
12761;DHT22;6444;49.742;6.114;2024-03-25T09:05:43;20.50;99.90
12761;DHT22;6444;49.742;6.114;2024-03-25T09:08:10;21.70;99.90
12761;DHT22;6444;49.742;6.114;2024-03-25T09:10:36;23.20;99.90
12761;DHT22;6444;49.742;6.114;2024-03-25T09:13:21;24.20;99.90
12761;DHT22;6444;49.742;6.114;2024-03-25T09:15:48;22.90;99.90
12761;DHT22;6444;49.742;6.114;2024-03-25T09:18:14;22.20;99.90
12761;DHT22;6444;49.742;6.114;2024-03-25T09:20:41;22.30;99.90
12761;DHT22;6444;49.742;6.114;2024-03-25T09:23:08;22.50;99.90
12761;DHT22;6444;49.742;6.114;2024-03-25T09:25:34;21.60;99.90
12761;DHT22;6444;49.742;6.114;2024-03-25T09:28:01;20.60;99.90
12761;DHT22;6444;49.742;6.114;2024-03-25T09:30:27;21.70;99.90
12761;DHT22;6444;49.742;6.114;2024-03-25T09:32:54;23.40;99.90
12761;DHT22;6444;49.742;6.114;2024-03-25T09:35:21;24.30;99.90
12761;DHT22;6444;49.742;6.114;2024-03-25T09:37:47;25.10;99.90
12761;DHT22;6444;49.742;6.114;2024-03-25T09:40:14;23.90;98.20
12761;DHT22;6444;49.742;6.114;2024-03-25T09:42:48;23.60;99.90
12761;DHT22;6444;49.742;6.114;2024-03-25T09:45:16;23.50;99.90
12761;DHT22;6444;49.742;6.114;2024-03-25T09:47:40;21.70;99.40
12761;DHT22;6444;49.742;6.114;2024-03-25T09:50:07;21.50;99.90
12761;DHT22;6444;49.742;6.114;2024-03-25T09:52:33;22.20;99.90
12761;DHT22;6444;49.742;6.114;2024-03-25T09:55:00;22.50;99.90
12761;DHT22;6444;49.742;6.114;2024-03-25T09:57:27;24.00;99.90
12761;DHT22;6444;49.742;6.114;2024-03-25T09:59:53;23.80;98.80
12761;DHT22;6444;49.742;6.114;2024-03-25T10:02:20;24.50;99.90
12761;DHT22;6444;49.742;6.114;2024-03-25T10:04:47;24.90;99.80
12761;DHT22;6444;49.742;6.114;2024-03-25T10:07:21;25.60;97.50
12761;DHT22;6444;49.742;6.114;2024-03-25T10:09:42;25.50;96.30
12761;DHT22;6444;49.742;6.114;2024-03-25T10:12:09;24.80;95.90
12761;DHT22;6444;49.742;6.114;2024-03-25T10:14:36;25.20;96.60
12761;DHT22;6444;49.742;6.114;2024-03-25T10:17:02;24.40;97.10
12761;DHT22;6444;49.742;6.114;2024-03-25T10:19:29;23.10;96.00
12761;DHT22;6444;49.742;6.114;2024-03-25T10:22:08;23.70;94.00
12761;DHT22;6444;49.742;6.114;2024-03-25T10:24:41;21.00;94.30
12761;DHT22;6444;49.742;6.114;2024-03-25T10:27:10;19.10;96.30
12761;DHT22;6444;49.742;6.114;2024-03-25T10:29:36;18.40;96.00
12761;DHT22;6444;49.742;6.114;2024-03-25T10:32:03;19.00;96.70
12761;DHT22;6444;49.742;6.114;2024-03-25T10:34:30;18.50;96.70
12761;DHT22;6444;49.742;6.114;2024-03-25T10:36:57;16.70;97.80
12761;DHT22;6444;49.742;6.114;2024-03-25T10:39:27;15.60;98.60
12761;DHT22;6444;49.742;6.114;2024-03-25T10:41:49;15.80;99.60
12761;DHT22;6444;49.742;6.114;2024-03-25T10:44:16;15.70;99.30
12761;DHT22;6444;49.742;6.114;2024-03-25T10:46:43;15.10;99.90
12761;DHT22;6444;49.742;6.114;2024-03-25T10:49:27;15.00;99.90
12761;DHT22;6444;49.742;6.114;2024-03-25T10:51:49;14.80;99.90
12761;DHT22;6444;49.742;6.114;2024-03-25T10:54:15;14.20;99.90
12761;DHT22;6444;49.742;6.114;2024-03-25T10:56:42;13.50;99.90
12761;DHT22;6444;49.742;6.114;2024-03-25T10:59:08;13.80;99.90
12761;DHT22;6444;49.742;6.114;2024-03-25T11:01:35;13.50;99.90
12761;DHT22;6444;49.742;6.114;2024-03-25T11:04:03;14.50;99.90
12761;DHT22;6444;49.742;6.114;2024-03-25T11:06:29;14.40;99.90
12761;DHT22;6444;49.742;6.114;2024-03-25T11:08:56;15.70;99.90
12761;DHT22;6444;49.742;6.114;2024-03-25T11:11:22;16.00;99.90
12761;DHT22;6444;49.742;6.114;2024-03-25T11:13:49;15.20;99.90
12761;DHT22;6444;49.742;6.114;2024-03-25T11:16:26;14.60;99.90
12761;DHT22;6444;49.742;6.114;2024-03-25T11:18:50;14.80;99.90
12761;DHT22;6444;49.742;6.114;2024-03-25T11:21:09;15.50;99.90
12761;DHT22;6444;49.742;6.114;2024-03-25T11:23:42;15.70;98.30
12761;DHT22;6444;49.742;6.114;2024-03-25T11:26:05;15.30;98.30
12761;DHT22;6444;49.742;6.114;2024-03-25T11:28:32;15.70;98.10
12761;DHT22;6444;49.742;6.114;2024-03-25T11:30:58;15.10;96.20
12761;DHT22;6444;49.742;6.114;2024-03-25T11:33:25;14.40;96.90
12761;DHT22;6444;49.742;6.114;2024-03-25T11:35:53;13.90;97.20
12761;DHT22;6444;49.742;6.114;2024-03-25T11:38:18;13.70;97.60
12761;DHT22;6444;49.742;6.114;2024-03-25T11:40:46;14.10;96.30
12761;DHT22;6444;49.742;6.114;2024-03-25T11:43:19;14.00;96.30
12761;DHT22;6444;49.742;6.114;2024-03-25T11:45:48;14.30;96.40
12761;DHT22;6444;49.742;6.114;2024-03-25T11:48:12;16.10;95.60
12761;DHT22;6444;49.742;6.114;2024-03-25T11:50:38;16.00;95.40
12761;DHT22;6444;49.742;6.114;2024-03-25T11:53:05;15.10;95.10
12761;DHT22;6444;49.742;6.114;2024-03-25T11:55:32;14.90;95.30
12761;DHT22;6444;49.742;6.114;2024-03-25T11:57:58;14.30;95.80
12761;DHT22;6444;49.742;6.114;2024-03-25T12:00:25;14.60;96.90
12761;DHT22;6444;49.742;6.114;2024-03-25T12:02:51;14.10;97.00
12761;DHT22;6444;49.742;6.114;2024-03-25T12:05:19;13.20;95.50
12761;DHT22;6444;49.742;6.114;2024-03-25T12:07:45;13.10;95.40
12761;DHT22;6444;49.742;6.114;2024-03-25T12:10:12;13.00;96.10
12761;DHT22;6444;49.742;6.114;2024-03-25T12:12:58;12.50;96.50
12761;DHT22;6444;49.742;6.114;2024-03-25T12:15:24;12.50;96.50
12761;DHT22;6444;49.742;6.114;2024-03-25T12:17:51;12.70;96.40
12761;DHT22;6444;49.742;6.114;2024-03-25T12:20:18;13.30;95.30
12761;DHT22;6444;49.742;6.114;2024-03-25T12:22:45;14.30;95.20
12761;DHT22;6444;49.742;6.114;2024-03-25T12:25:11;14.20;95.10
12761;DHT22;6444;49.742;6.114;2024-03-25T12:27:38;13.90;94.90
12761;DHT22;6444;49.742;6.114;2024-03-25T12:30:08;13.00;95.40
12761;DHT22;6444;49.742;6.114;2024-03-25T12:35:07;12.90;96.60
12761;DHT22;6444;49.742;6.114;2024-03-25T12:37:33;12.90;96.10
12761;DHT22;6444;49.742;6.114;2024-03-25T12:40:00;13.00;96.40
12761;DHT22;6444;49.742;6.114;2024-03-25T12:42:27;12.60;96.10
12761;DHT22;6444;49.742;6.114;2024-03-25T12:44:53;12.50;96.60
12761;DHT22;6444;49.742;6.114;2024-03-25T12:47:21;13.00;95.50
12761;DHT22;6444;49.742;6.114;2024-03-25T12:49:47;12.90;95.40
12761;DHT22;6444;49.742;6.114;2024-03-25T12:52:14;12.60;95.80
12761;DHT22;6444;49.742;6.114;2024-03-25T12:54:41;12.50;96.10
12761;DHT22;6444;49.742;6.114;2024-03-25T12:57:13;12.40;96.10
12761;DHT22;6444;49.742;6.114;2024-03-25T12:59:37;12.90;95.60
12761;DHT22;6444;49.742;6.114;2024-03-25T13:02:03;12.80;95.40
12761;DHT22;6444;49.742;6.114;2024-03-25T13:04:30;12.80;95.00
12761;DHT22;6444;49.742;6.114;2024-03-25T13:06:56;13.00;95.30
12761;DHT22;6444;49.742;6.114;2024-03-25T13:09:24;14.00;95.10
12761;DHT22;6444;49.742;6.114;2024-03-25T13:11:50;13.90;95.00
12761;DHT22;6444;49.742;6.114;2024-03-25T13:14:17;13.70;95.10
12761;DHT22;6444;49.742;6.114;2024-03-25T13:16:44;13.90;95.10
12761;DHT22;6444;49.742;6.114;2024-03-25T13:19:11;13.50;95.00
12761;DHT22;6444;49.742;6.114;2024-03-25T13:21:38;13.50;94.90
12761;DHT22;6444;49.742;6.114;2024-03-25T13:24:04;13.30;95.80
12761;DHT22;6444;49.742;6.114;2024-03-25T13:26:31;13.50;96.50
12761;DHT22;6444;49.742;6.114;2024-03-25T13:28:58;13.40;95.20
12761;DHT22;6444;49.742;6.114;2024-03-25T13:31:24;13.80;95.30
12761;DHT22;6444;49.742;6.114;2024-03-25T13:33:51;14.10;95.70
12761;DHT22;6444;49.742;6.114;2024-03-25T13:36:18;13.50;95.50
12761;DHT22;6444;49.742;6.114;2024-03-25T13:38:45;13.50;95.50
12761;DHT22;6444;49.742;6.114;2024-03-25T13:41:12;13.30;96.70
12761;DHT22;6444;49.742;6.114;2024-03-25T13:43:44;13.10;96.20
12761;DHT22;6444;49.742;6.114;2024-03-25T13:46:11;13.40;95.90
12761;DHT22;6444;49.742;6.114;2024-03-25T13:48:40;13.50;96.30
12761;DHT22;6444;49.742;6.114;2024-03-25T13:51:07;13.20;95.30
12761;DHT22;6444;49.742;6.114;2024-03-25T13:53:34;12.90;96.40
12761;DHT22;6444;49.742;6.114;2024-03-25T13:56:01;12.90;95.20
12761;DHT22;6444;49.742;6.114;2024-03-25T13:58:28;12.80;95.20
12761;DHT22;6444;49.742;6.114;2024-03-25T14:00:55;12.30;95.30
12761;DHT22;6444;49.742;6.114;2024-03-25T14:03:21;12.50;95.90
12761;DHT22;6444;49.742;6.114;2024-03-25T14:05:48;12.40;95.10
12761;DHT22;6444;49.742;6.114;2024-03-25T14:08:16;12.50;95.30
12761;DHT22;6444;49.742;6.114;2024-03-25T14:10:43;12.40;95.30
12761;DHT22;6444;49.742;6.114;2024-03-25T14:13:10;12.20;96.10
12761;DHT22;6444;49.742;6.114;2024-03-25T14:15:36;12.40;96.30
12761;DHT22;6444;49.742;6.114;2024-03-25T14:18:03;12.30;95.90
12761;DHT22;6444;49.742;6.114;2024-03-25T14:20:30;12.90;96.10
12761;DHT22;6444;49.742;6.114;2024-03-25T14:22:56;12.40;96.40
12761;DHT22;6444;49.742;6.114;2024-03-25T14:25:23;13.00;95.80
12761;DHT22;6444;49.742;6.114;2024-03-25T14:27:51;13.80;95.90
12761;DHT22;6444;49.742;6.114;2024-03-25T14:30:18;13.50;95.80
12761;DHT22;6444;49.742;6.114;2024-03-25T14:32:44;13.40;95.50
12761;DHT22;6444;49.742;6.114;2024-03-25T14:35:11;13.30;95.00
12761;DHT22;6444;49.742;6.114;2024-03-25T14:37:37;13.20;95.20
12761;DHT22;6444;49.742;6.114;2024-03-25T14:40:05;13.20;94.60
12761;DHT22;6444;49.742;6.114;2024-03-25T14:42:32;13.10;94.60
12761;DHT22;6444;49.742;6.114;2024-03-25T14:44:58;13.30;94.80
12761;DHT22;6444;49.742;6.114;2024-03-25T14:47:25;13.10;94.80
12761;DHT22;6444;49.742;6.114;2024-03-25T14:49:52;13.50;94.60
12761;DHT22;6444;49.742;6.114;2024-03-25T14:52:18;13.70;93.90
12761;DHT22;6444;49.742;6.114;2024-03-25T14:54:46;12.70;96.10
12761;DHT22;6444;49.742;6.114;2024-03-25T14:57:12;12.60;96.10
12761;DHT22;6444;49.742;6.114;2024-03-25T14:59:39;12.70;95.90
12761;DHT22;6444;49.742;6.114;2024-03-25T15:02:05;12.40;96.10
12761;DHT22;6444;49.742;6.114;2024-03-25T15:04:33;13.40;95.30
12761;DHT22;6444;49.742;6.114;2024-03-25T15:06:59;13.40;95.30
12761;DHT22;6444;49.742;6.114;2024-03-25T15:09:28;12.90;95.50
12761;DHT22;6444;49.742;6.114;2024-03-25T15:11:55;12.20;95.20
12761;DHT22;6444;49.742;6.114;2024-03-25T15:14:22;12.10;95.20
12761;DHT22;6444;49.742;6.114;2024-03-25T15:16:49;12.40;95.20
12761;DHT22;6444;49.742;6.114;2024-03-25T15:19:15;12.20;95.50
12761;DHT22;6444;49.742;6.114;2024-03-25T15:21:42;12.40;96.20
12761;DHT22;6444;49.742;6.114;2024-03-25T15:24:09;12.70;95.80
12761;DHT22;6444;49.742;6.114;2024-03-25T15:26:36;12.60;95.70
12761;DHT22;6444;49.742;6.114;2024-03-25T15:29:02;13.00;96.00
12761;DHT22;6444;49.742;6.114;2024-03-25T15:31:29;13.20;95.10
12761;DHT22;6444;49.742;6.114;2024-03-25T15:33:56;13.30;95.20
12761;DHT22;6444;49.742;6.114;2024-03-25T15:36:23;13.70;95.10
12761;DHT22;6444;49.742;6.114;2024-03-25T15:38:50;13.60;95.10
12761;DHT22;6444;49.742;6.114;2024-03-25T15:41:16;13.30;95.60
12761;DHT22;6444;49.742;6.114;2024-03-25T15:43:43;13.60;95.20
12761;DHT22;6444;49.742;6.114;2024-03-25T15:46:10;13.70;94.90
12761;DHT22;6444;49.742;6.114;2024-03-25T15:48:36;12.90;94.90
12761;DHT22;6444;49.742;6.114;2024-03-25T15:51:03;12.80;95.40
12761;DHT22;6444;49.742;6.114;2024-03-25T15:53:30;12.90;95.50
12761;DHT22;6444;49.742;6.114;2024-03-25T15:55:57;13.30;95.80